Time;durP1;ratioP1;P1;durP2;ratioP2;P2;SDS_P1;SDS_P2;PMS_P1;PMS_P2;Temp;Humidity;BMP_temperature;BMP_pressure;BME280_temperature;BME280_humidity;BME280_pressure;Samples;Min_cycle;Max_cycle;Signal;HPM_P1;HPM_P2
2022/09/12 00:00:48;;;;;;;11.15;8.02;;;17.40;93.60;;;;;;5138824;28;20047;-87
2022/09/12 00:03:15;;;;;;;9.63;8.20;;;17.40;93.60;;;;;;5104916;28;20032;-87
2022/09/12 00:05:43;;;;;;;8.88;8.07;;;17.40;93.60;;;;;;5121694;28;20031;-88
2022/09/12 00:08:11;;;;;;;8.20;7.40;;;17.40;93.60;;;;;;5135745;28;20102;-86
2022/09/12 00:10:38;;;;;;;8.10;7.40;;;17.40;93.60;;;;;;5115169;28;20011;-89
2022/09/12 00:13:08;;;;;;;8.30;7.50;;;17.40;93.60;;;;;;5124142;28;20027;-86
2022/09/12 00:15:39;;;;;;;9.00;8.07;;;17.40;93.60;;;;;;5124509;28;20020;-88
2022/09/12 00:18:14;;;;;;;8.02;7.25;;;17.40;93.60;;;;;;5105383;28;20091;-87
2022/09/12 00:20:44;;;;;;;8.50;7.63;;;17.30;93.50;;;;;;5103715;28;20058;-87
2022/09/12 00:23:10;;;;;;;8.13;7.32;;;17.30;93.60;;;;;;5123068;28;20035;-88
2022/09/12 00:25:45;;;;;;;8.50;7.65;;;17.30;93.60;;;;;;5123864;28;20092;-87
2022/09/12 00:28:16;;;;;;;8.18;7.38;;;17.20;93.60;;;;;;5070370;28;20108;-88
2022/09/12 00:30:46;;;;;;;8.00;7.30;;;17.20;93.60;;;;;;5120861;28;20052;-89
2022/09/12 00:33:13;;;;;;;8.80;7.07;;;17.20;93.60;;;;;;5102869;28;20080;-87
2022/09/12 00:35:42;;;;;;;8.65;7.75;;;17.10;93.60;;;;;;5120315;28;20465;-88
2022/09/12 00:38:08;;;;;;;9.15;7.53;;;17.20;93.60;;;;;;5102269;28;20031;-88
2022/09/12 00:40:33;;;;;;;7.53;6.72;;;17.20;93.60;;;;;;5101950;28;20031;-87
2022/09/12 00:42:59;;;;;;;7.88;7.10;;;17.10;93.60;;;;;;5121275;28;20024;-88
2022/09/12 00:45:28;;;;;;;8.90;7.43;;;17.10;93.50;;;;;;5086785;28;20036;-87
2022/09/12 00:47:57;;;;;;;8.57;7.65;;;17.10;93.60;;;;;;5099667;28;20098;-87
2022/09/12 00:50:24;;;;;;;9.15;7.28;;;17.00;93.50;;;;;;5097266;28;20028;-86
2022/09/12 00:53:01;;;;;;;8.40;7.53;;;17.00;93.50;;;;;;5096876;28;20058;-88
2022/09/12 00:55:38;;;;;;;8.10;7.35;;;17.00;93.60;;;;;;5118156;28;20042;-86
2022/09/12 00:58:31;;;;;;;8.27;7.47;;;16.90;93.60;;;;;;5100637;28;20035;-88
2022/09/12 01:00:57;;;;;;;8.45;7.65;;;16.90;93.60;;;;;;5108070;28;20055;-89
2022/09/12 01:03:30;;;;;;;8.65;7.82;;;16.90;93.60;;;;;;5082651;28;20028;-89
2022/09/12 01:06:18;;;;;;;8.57;7.68;;;16.90;93.60;;;;;;5085186;28;20039;-87
2022/09/12 01:08:46;;;;;;;7.70;7.00;;;16.80;93.70;;;;;;5099818;28;20024;-87
2022/09/12 01:11:13;;;;;;;8.05;7.35;;;16.80;93.70;;;;;;5117546;28;20024;-87
2022/09/12 01:13:39;;;;;;;8.18;7.38;;;16.80;93.70;;;;;;5099290;28;20389;-88
2022/09/12 01:16:08;;;;;;;8.35;7.45;;;16.80;93.70;;;;;;5117773;28;20039;-87
2022/09/12 01:18:41;;;;;;;8.75;7.95;;;16.80;93.60;;;;;;5066373;28;20032;-88
2022/09/12 01:21:59;;;;;;;8.93;8.02;;;16.80;93.70;;;;;;5121471;28;20479;-88
2022/09/12 01:24:50;;;;;;;8.68;7.88;;;16.80;93.70;;;;;;5060022;28;20488;-86
2022/09/12 01:27:34;;;;;;;8.85;7.38;;;16.70;93.60;;;;;;5103116;28;20031;-88
2022/09/12 01:30:07;;;;;;;8.82;7.93;;;16.70;93.60;;;;;;5121277;28;20111;-88
2022/09/12 01:33:11;;;;;;;8.52;7.72;;;16.80;93.70;;;;;;5121107;28;20026;-87
2022/09/12 01:36:15;;;;;;;8.73;7.78;;;16.70;93.60;;;;;;5102433;28;20099;-87
2022/09/12 01:39:10;;;;;;;9.30;8.50;;;16.70;93.60;;;;;;5103074;28;20362;-86
2022/09/12 01:41:45;;;;;;;9.95;8.68;;;16.70;93.60;;;;;;5073460;28;20066;-87
2022/09/12 01:44:28;;;;;;;11.70;10.00;;;16.70;93.70;;;;;;5121001;28;20024;-88
2022/09/12 01:47:21;;;;;;;12.38;11.10;;;16.70;93.80;;;;;;5102686;28;20047;-88
2022/09/12 01:50:34;;;;;;;12.68;11.38;;;16.70;93.90;;;;;;5121314;28;20541;-87
2022/09/12 01:53:05;;;;;;;13.32;11.27;;;16.70;94.10;;;;;;5079519;28;20028;-88
2022/09/12 01:55:36;;;;;;;12.75;11.35;;;16.70;94.10;;;;;;5063222;28;20016;-89
2022/09/12 01:58:12;;;;;;;13.20;11.90;;;16.80;94.10;;;;;;5117443;28;20047;-87
2022/09/12 02:01:08;;;;;;;13.40;11.80;;;16.70;94.10;;;;;;5122923;28;20088;-88
2022/09/12 02:03:45;;;;;;;13.27;11.90;;;16.70;94.20;;;;;;5112688;28;20042;-87
2022/09/12 02:06:19;;;;;;;13.38;12.07;;;16.80;94.20;;;;;;5104546;28;20490;-88
2022/09/12 02:09:03;;;;;;;12.43;11.13;;;16.70;94.30;;;;;;5121000;28;20050;-88
2022/09/12 02:11:33;;;;;;;13.07;11.15;;;16.70;94.30;;;;;;5120197;28;20016;-88
2022/09/12 02:14:16;;;;;;;11.68;10.50;;;16.70;94.20;;;;;;5102288;28;20031;-89
2022/09/12 02:16:49;;;;;;;11.48;10.35;;;16.70;94.20;;;;;;5085585;28;20028;-87
2022/09/12 02:19:18;;;;;;;12.00;10.65;;;16.70;94.20;;;;;;5102985;28;20019;-88
2022/09/12 02:21:54;;;;;;;11.95;10.80;;;16.60;94.10;;;;;;5120170;28;20024;-88
2022/09/12 02:24:24;;;;;;;12.90;11.60;;;16.60;94.10;;;;;;5101818;28;20036;-87
2022/09/12 02:26:56;;;;;;;12.60;10.70;;;16.60;94.10;;;;;;5102910;28;20026;-87
2022/09/12 02:29:22;;;;;;;11.82;10.55;;;16.60;94.10;;;;;;5120950;28;20506;-88
2022/09/12 02:32:00;;;;;;;12.27;11.02;;;16.60;94.10;;;;;;5120568;28;20028;-88
2022/09/12 02:34:54;;;;;;;12.40;11.10;;;16.60;94.10;;;;;;5097666;28;20561;-87
2022/09/12 02:37:26;;;;;;;14.05;10.48;;;16.60;94.10;;;;;;5101945;28;20036;-87
2022/09/12 02:39:54;;;;;;;12.60;11.40;;;16.60;94.10;;;;;;5120753;28;20024;-88
2022/09/12 02:42:21;;;;;;;11.38;10.30;;;16.50;94.00;;;;;;5120446;28;20079;-88
2022/09/12 02:44:47;;;;;;;12.23;10.95;;;16.50;94.00;;;;;;5120441;28;20107;-88
2022/09/12 02:47:19;;;;;;;12.20;10.98;;;16.50;94.00;;;;;;5101687;28;20070;-87
2022/09/12 02:49:45;;;;;;;12.02;10.75;;;16.50;94.00;;;;;;5101924;28;20026;-88
2022/09/12 02:52:11;;;;;;;13.30;12.00;;;16.50;94.00;;;;;;5085429;28;20023;-87
2022/09/12 02:54:37;;;;;;;12.63;11.27;;;16.50;94.10;;;;;;5100981;28;20071;-88
2022/09/12 02:57:14;;;;;;;11.80;10.70;;;16.50;94.00;;;;;;5084891;28;20032;-87
2022/09/12 02:59:41;;;;;;;12.00;10.90;;;16.40;94.00;;;;;;5101248;28;20457;-88
2022/09/12 03:02:37;;;;;;;11.60;10.48;;;16.40;93.90;;;;;;5101123;28;20100;-87
2022/09/12 03:05:24;;;;;;;12.90;11.60;;;16.40;94.00;;;;;;5084495;28;20408;-89
2022/09/12 03:08:27;;;;;;;12.13;11.00;;;16.40;94.00;;;;;;5119363;28;20058;-87
2022/09/12 03:10:56;;;;;;;11.75;10.55;;;16.30;94.00;;;;;;5120062;28;20035;-86
2022/09/12 03:13:28;;;;;;;11.40;10.20;;;16.30;93.90;;;;;;5119581;28;20027;-87
2022/09/12 03:15:57;;;;;;;12.27;10.88;;;16.30;93.90;;;;;;5102037;28;20533;-87
2022/09/12 03:18:40;;;;;;;12.02;10.80;;;16.30;94.00;;;;;;5101531;28;20485;-89
2022/09/12 03:21:27;;;;;;;14.27;10.88;;;16.30;94.00;;;;;;5112972;28;20030;-89
2022/09/12 03:24:17;;;;;;;13.20;11.90;;;16.20;94.00;;;;;;5114909;28;20065;-87
2022/09/12 03:26:56;;;;;;;12.32;11.07;;;16.20;94.00;;;;;;5110767;28;20034;-88
2022/09/12 03:29:25;;;;;;;13.73;11.10;;;16.20;94.00;;;;;;5109576;28;20114;-85
2022/09/12 03:31:55;;;;;;;12.57;11.35;;;16.20;94.00;;;;;;5087233;28;20027;-88
2022/09/12 03:34:23;;;;;;;12.70;10.80;;;16.20;94.10;;;;;;5101756;28;20023;-87
2022/09/12 03:36:54;;;;;;;11.60;10.43;;;16.20;94.10;;;;;;5101612;28;20440;-86
2022/09/12 03:39:25;;;;;;;14.85;11.85;;;16.20;94.10;;;;;;5131351;28;20080;-86
2022/09/12 03:41:54;;;;;;;13.43;11.30;;;16.20;94.10;;;;;;5121624;28;20027;-86
2022/09/12 03:44:20;;;;;;;13.55;12.15;;;16.20;94.10;;;;;;5122261;28;20083;-87
2022/09/12 03:46:47;;;;;;;13.80;12.35;;;16.10;94.10;;;;;;5139429;28;20055;-87
2022/09/12 03:49:13;;;;;;;13.65;12.20;;;16.10;94.20;;;;;;5117676;28;20028;-86
2022/09/12 03:51:39;;;;;;;14.07;12.68;;;16.10;94.20;;;;;;5085415;28;20061;-87
2022/09/12 03:54:08;;;;;;;13.60;12.20;;;16.10;94.20;;;;;;5102300;28;20035;-87
2022/09/12 03:56:35;;;;;;;14.25;12.80;;;16.10;94.20;;;;;;5085066;28;20028;-87
2022/09/12 03:59:07;;;;;;;14.40;12.80;;;16.10;94.20;;;;;;5085007;28;20034;-87
2022/09/12 04:01:37;;;;;;;14.77;12.38;;;16.10;94.20;;;;;;5101623;28;20024;-87
2022/09/12 04:04:03;;;;;;;14.33;12.83;;;16.10;94.20;;;;;;5120173;28;20110;-87
2022/09/12 04:06:30;;;;;;;15.38;13.60;;;16.10;94.20;;;;;;5119471;28;20023;-88
2022/09/12 04:08:55;;;;;;;13.75;12.40;;;16.10;94.20;;;;;;5120336;28;20026;-89
2022/09/12 04:11:22;;;;;;;16.38;13.65;;;16.10;94.30;;;;;;5118980;28;20071;-88
2022/09/12 04:13:48;;;;;;;16.15;13.98;;;16.10;94.30;;;;;;5118373;28;20027;-88
2022/09/12 04:16:16;;;;;;;13.98;12.52;;;16.10;94.30;;;;;;5100455;28;20114;-87
2022/09/12 04:18:42;;;;;;;14.73;13.13;;;16.10;94.30;;;;;;5100512;28;20055;-87
2022/09/12 04:21:11;;;;;;;17.02;13.60;;;16.10;94.30;;;;;;5083358;28;20461;-88
2022/09/12 04:23:37;;;;;;;14.98;13.40;;;16.10;94.30;;;;;;5100765;28;20201;-88
2022/09/12 04:26:07;;;;;;;17.90;14.77;;;16.20;94.40;;;;;;5100372;28;20061;-87
2022/09/12 04:28:37;;;;;;;15.63;13.70;;;16.20;94.40;;;;;;5100931;28;20353;-87
2022/09/12 04:31:09;;;;;;;16.60;14.48;;;16.20;94.40;;;;;;5101119;28;20065;-88
2022/09/12 04:33:38;;;;;;;16.67;14.88;;;16.20;94.40;;;;;;5100597;28;20058;-87
2022/09/12 04:36:08;;;;;;;16.50;14.50;;;16.20;94.50;;;;;;5082784;28;20028;-88
2022/09/12 04:38:35;;;;;;;18.23;14.90;;;16.20;94.40;;;;;;5118277;28;20039;-89
2022/09/12 04:41:10;;;;;;;18.60;15.45;;;16.20;94.40;;;;;;5100347;28;20031;-88
2022/09/12 04:43:35;;;;;;;20.10;16.88;;;16.30;94.50;;;;;;5100827;28;20012;-90
2022/09/12 04:46:10;;;;;;;21.77;17.23;;;16.30;94.50;;;;;;5101310;28;20054;-89
2022/09/12 04:48:38;;;;;;;20.65;17.38;;;16.30;94.60;;;;;;5100940;28;20031;-90
2022/09/12 04:51:11;;;;;;;20.15;16.27;;;16.30;94.70;;;;;;5100732;28;20028;-89
2022/09/12 04:53:40;;;;;;;17.63;15.50;;;16.30;94.70;;;;;;5119517;28;20055;-89
2022/09/12 04:56:08;;;;;;;20.45;15.98;;;16.30;94.60;;;;;;5088772;28;20123;-88
2022/09/12 04:58:37;;;;;;;19.88;16.00;;;16.30;94.60;;;;;;5104993;28;20027;-89
2022/09/12 05:01:14;;;;;;;20.33;16.13;;;16.30;94.60;;;;;;5108156;28;20064;-89
2022/09/12 05:03:45;;;;;;;20.30;16.40;;;16.30;94.60;;;;;;5099612;28;20118;-89
2022/09/12 05:06:20;;;;;;;21.33;17.73;;;16.30;94.90;;;;;;5115875;28;20053;-90
2022/09/12 05:08:46;;;;;;;20.90;16.75;;;16.40;94.70;;;;;;5114128;28;20024;-85
2022/09/12 05:11:15;;;;;;;18.70;16.02;;;16.40;94.70;;;;;;5129511;28;20024;-90
2022/09/12 05:13:41;;;;;;;20.25;16.60;;;16.40;94.70;;;;;;5090212;28;20358;-88
2022/09/12 05:16:11;;;;;;;19.27;16.83;;;16.40;94.70;;;;;;5107095;28;20031;-88
2022/09/12 05:18:37;;;;;;;19.63;17.00;;;16.40;94.80;;;;;;5088913;28;20039;-88
2022/09/12 05:21:07;;;;;;;20.33;16.92;;;16.50;94.80;;;;;;5087685;28;20038;-89
2022/09/12 05:23:35;;;;;;;19.65;15.90;;;16.40;94.80;;;;;;5107075;28;20053;-89
2022/09/12 05:26:03;;;;;;;18.90;15.77;;;16.40;95.10;;;;;;5110000;28;20044;-87
2022/09/12 05:28:37;;;;;;;20.58;16.45;;;16.50;94.90;;;;;;5107604;28;20012;-88
2022/09/12 05:31:12;;;;;;;17.40;14.25;;;16.40;94.80;;;;;;5107747;28;20031;-89
2022/09/12 05:33:41;;;;;;;18.48;14.95;;;16.40;94.80;;;;;;5124836;28;20000;-89
2022/09/12 05:36:16;;;;;;;21.05;17.08;;;16.50;94.80;;;;;;5123541;28;20040;-89
2022/09/12 05:38:42;;;;;;;24.65;18.58;;;16.50;94.80;;;;;;5128338;28;20019;-89
2022/09/12 05:41:12;;;;;;;22.25;17.98;;;16.50;94.90;;;;;;5104360;28;20122;-86
2022/09/12 05:43:39;;;;;;;22.70;17.55;;;16.50;94.90;;;;;;5105225;28;20038;-88
2022/09/12 05:46:18;;;;;;;22.05;17.17;;;16.60;95.00;;;;;;5122100;28;20102;-88
2022/09/12 05:48:45;;;;;;;24.05;18.02;;;16.60;95.00;;;;;;5105584;28;20024;-89
2022/09/12 05:51:25;;;;;;;22.92;17.70;;;16.50;95.00;;;;;;5104483;28;20077;-89
2022/09/12 05:53:59;;;;;;;21.98;17.30;;;16.60;95.00;;;;;;5089336;28;20023;-88
2022/09/12 05:56:30;;;;;;;21.08;16.88;;;16.60;95.00;;;;;;5087297;28;20031;-87
2022/09/12 05:59:03;;;;;;;23.05;17.90;;;16.60;95.00;;;;;;5103056;28;20034;-88
2022/09/12 06:01:33;;;;;;;21.70;16.45;;;16.60;94.90;;;;;;5121620;28;20024;-89
2022/09/12 06:04:02;;;;;;;21.45;17.00;;;16.70;94.90;;;;;;5121403;28;20099;-89
2022/09/12 06:06:31;;;;;;;23.83;17.48;;;16.70;94.90;;;;;;5102527;28;20038;-90
2022/09/12 06:08:59;;;;;;;24.67;17.90;;;16.70;94.90;;;;;;5103969;28;20030;-88
2022/09/12 06:11:27;;;;;;;23.70;17.73;;;16.70;94.90;;;;;;5104807;28;20030;-89
2022/09/12 06:13:55;;;;;;;22.23;16.70;;;16.80;94.90;;;;;;5106868;28;20030;-89
2022/09/12 06:16:32;;;;;;;24.33;19.00;;;16.80;94.90;;;;;;5124999;28;20024;-88
2022/09/12 06:19:06;;;;;;;24.33;18.08;;;16.80;95.00;;;;;;5105754;28;20047;-88
2022/09/12 06:21:34;;;;;;;23.33;17.55;;;16.80;95.10;;;;;;5103169;28;20030;-85
2022/09/12 06:24:00;;;;;;;23.30;18.23;;;16.90;95.10;;;;;;5121847;28;20079;-89
2022/09/12 06:26:28;;;;;;;28.23;21.23;;;16.90;95.10;;;;;;5102773;28;20038;-89
2022/09/12 06:28:56;;;;;;;24.60;19.90;;;16.90;95.10;;;;;;5103299;28;20442;-89
2022/09/12 06:31:30;;;;;;;24.88;19.05;;;16.90;95.10;;;;;;5120292;28;20027;-90
2022/09/12 06:33:58;;;;;;;26.60;20.05;;;17.00;95.10;;;;;;5102254;28;20081;-89
2022/09/12 06:36:27;;;;;;;28.70;19.92;;;17.00;95.10;;;;;;5119838;28;22313;-89
2022/09/12 06:39:02;;;;;;;25.95;20.20;;;17.00;95.10;;;;;;5102495;28;20020;-90
2022/09/12 06:41:31;;;;;;;28.13;20.15;;;17.00;95.10;;;;;;5120480;28;20028;-88
2022/09/12 06:43:59;;;;;;;31.77;21.35;;;17.10;95.20;;;;;;5121299;28;20020;-88
2022/09/12 06:46:27;;;;;;;25.02;19.67;;;17.10;95.20;;;;;;5102312;28;20055;-87
2022/09/12 06:48:59;;;;;;;32.88;22.77;;;17.10;95.20;;;;;;5088755;28;20032;-89
2022/09/12 06:51:26;;;;;;;27.95;21.25;;;17.10;95.20;;;;;;5107674;28;20095;-88
2022/09/12 06:53:55;;;;;;;33.38;23.70;;;17.10;95.20;;;;;;5128197;28;20027;-90
2022/09/12 06:56:24;;;;;;;30.45;22.42;;;17.10;95.20;;;;;;5122085;28;20020;-88
2022/09/12 06:58:50;;;;;;;31.38;22.63;;;17.20;95.20;;;;;;5113686;28;20016;-89
2022/09/12 07:01:36;;;;;;;29.60;22.05;;;17.20;95.30;;;;;;5103159;28;20028;-88
2022/09/12 07:04:03;;;;;;;30.77;23.02;;;17.20;95.20;;;;;;5103649;28;20472;-89
2022/09/12 07:06:35;;;;;;;35.08;23.55;;;17.20;95.20;;;;;;5103343;28;20364;-90
2022/09/12 07:09:03;;;;;;;34.53;24.52;;;17.30;95.30;;;;;;5103223;28;20023;-89
2022/09/12 07:11:33;;;;;;;32.28;24.58;;;17.30;95.30;;;;;;5104401;28;20047;-89
2022/09/12 07:14:04;;;;;;;31.63;22.30;;;17.30;95.30;;;;;;5102523;28;20051;-89
2022/09/12 07:16:31;;;;;;;33.38;23.67;;;17.40;95.40;;;;;;5116676;28;20038;-90
2022/09/12 07:18:59;;;;;;;35.03;24.75;;;17.40;95.30;;;;;;5139635;28;20023;-92
2022/09/12 07:21:25;;;;;;;36.00;24.10;;;17.50;95.40;;;;;;5122254;28;20019;-89
2022/09/12 07:23:51;;;;;;;32.75;24.45;;;17.50;95.50;;;;;;5114746;28;20090;-90
2022/09/12 07:26:17;;;;;;;36.38;23.98;;;17.50;95.60;;;;;;5087389;28;20020;-90
2022/09/12 07:28:43;;;;;;;32.63;24.23;;;17.60;95.70;;;;;;5102031;28;20015;-89
2022/09/12 07:31:15;;;;;;;32.83;24.58;;;17.60;95.70;;;;;;5085858;28;20082;-87
2022/09/12 07:33:45;;;;;;;32.45;24.05;;;17.60;95.70;;;;;;5120571;28;20381;-88
2022/09/12 07:36:13;;;;;;;32.80;24.83;;;17.70;95.70;;;;;;5121076;28;20024;-91
2022/09/12 07:38:42;;;;;;;33.47;24.90;;;17.70;95.60;;;;;;5102040;28;20042;-85
2022/09/12 07:41:29;;;;;;;30.85;24.00;;;17.80;95.90;;;;;;5100947;28;20058;-89
2022/09/12 07:43:57;;;;;;;30.70;23.17;;;17.80;95.70;;;;;;5101744;28;20027;-88
2022/09/12 07:46:24;;;;;;;31.63;24.10;;;17.80;95.60;;;;;;5120004;28;20055;-91
2022/09/12 07:48:55;;;;;;;34.72;23.67;;;17.90;95.70;;;;;;5085970;28;20023;-91
2022/09/12 07:51:24;;;;;;;31.08;23.52;;;18.00;95.80;;;;;;5101946;28;20035;-90
2022/09/12 07:53:52;;;;;;;28.00;22.05;;;18.00;95.70;;;;;;5121236;28;20358;-91
2022/09/12 07:56:20;;;;;;;27.60;22.35;;;18.20;95.80;;;;;;5119986;28;20023;-90
2022/09/12 07:58:46;;;;;;;29.88;23.00;;;18.20;95.70;;;;;;5102903;28;20050;-94
2022/09/12 08:01:15;;;;;;;29.40;21.42;;;18.20;95.70;;;;;;5102063;28;20023;-90
2022/09/12 08:03:47;;;;;;;29.10;23.17;;;18.30;95.70;;;;;;5102341;28;20392;-91
2022/09/12 08:06:20;;;;;;;31.23;23.70;;;18.30;95.60;;;;;;5120539;28;20019;-90
2022/09/12 08:08:51;;;;;;;31.65;22.90;;;18.30;95.60;;;;;;5119788;28;20019;-89
2022/09/12 08:11:24;;;;;;;28.35;20.60;;;18.40;95.60;;;;;;5100312;28;20210;-89
2022/09/12 08:14:08;;;;;;;29.08;21.80;;;18.40;95.60;;;;;;5101955;28;20024;-91
2022/09/12 08:16:39;;;;;;;29.90;22.10;;;18.50;95.50;;;;;;5100605;28;20396;-90
2022/09/12 08:19:13;;;;;;;27.05;20.77;;;18.60;95.50;;;;;;5119070;28;20036;-91
2022/09/12 08:21:39;;;;;;;25.17;20.67;;;18.60;95.50;;;;;;5100553;28;20537;-89
2022/09/12 08:24:11;;;;;;;27.08;20.50;;;18.70;95.40;;;;;;5084237;28;20114;-89
2022/09/12 08:29:28;;;;;;;26.27;19.77;;;18.80;95.40;;;;;;5120029;28;20028;-90
2022/09/12 08:31:56;;;;;;;25.15;19.08;;;18.80;95.30;;;;;;5101832;28;20053;-88
2022/09/12 08:34:25;;;;;;;26.83;20.05;;;18.90;95.30;;;;;;5083053;28;20028;-90
2022/09/12 08:36:53;;;;;;;27.48;19.27;;;18.90;95.20;;;;;;5119269;28;20046;-90
2022/09/12 08:39:20;;;;;;;29.52;20.23;;;19.00;95.20;;;;;;5119254;28;20016;-89
2022/09/12 08:41:54;;;;;;;29.90;19.70;;;19.10;95.20;;;;;;5120179;28;20495;-90
2022/09/12 08:45:00;;;;;;;25.77;18.42;;;19.10;95.10;;;;;;5102993;28;20020;-91
2022/09/12 08:47:35;;;;;;;26.98;18.58;;;19.20;95.10;;;;;;5119692;28;20131;-92
2022/09/12 08:50:18;;;;;;;27.55;20.50;;;19.30;95.10;;;;;;5119663;28;20023;-91
2022/09/12 08:53:04;;;;;;;24.77;18.27;;;19.30;95.10;;;;;;5119301;28;20120;-91
2022/09/12 08:55:39;;;;;;;24.40;18.27;;;19.30;95.20;;;;;;5118951;28;20016;-89
2022/09/12 08:58:21;;;;;;;22.73;17.83;;;19.40;95.20;;;;;;5119039;28;20070;-90
2022/09/12 09:01:09;;;;;;;23.27;17.42;;;19.50;95.10;;;;;;5100435;28;20461;-90
2022/09/12 09:04:03;;;;;;;22.20;16.75;;;19.60;95.00;;;;;;5119145;28;20023;-90
2022/09/12 09:06:50;;;;;;;22.30;16.75;;;19.60;94.90;;;;;;5101035;28;20028;-88
2022/09/12 09:09:38;;;;;;;20.88;16.20;;;19.70;94.90;;;;;;5124981;28;20065;-88
2022/09/12 09:12:16;;;;;;;20.10;13.93;;;19.80;94.90;;;;;;5121160;28;20019;-88
2022/09/12 09:15:11;;;;;;;17.85;14.25;;;19.80;94.90;;;;;;5121245;28;20035;-87
2022/09/12 09:18:17;;;;;;;18.95;14.02;;;19.90;94.80;;;;;;5120968;28;20043;-91
2022/09/12 09:20:59;;;;;;;17.63;13.52;;;20.00;94.80;;;;;;5037560;28;20030;-93
2022/09/12 09:23:33;;;;;;;18.63;14.38;;;20.10;94.80;;;;;;5096016;28;20031;-91
2022/09/12 09:26:25;;;;;;;18.17;13.50;;;20.20;94.70;;;;;;5119755;28;20026;-90
2022/09/12 09:28:58;;;;;;;16.77;13.18;;;20.20;94.60;;;;;;5100181;28;20043;-92
2022/09/12 09:31:41;;;;;;;14.15;11.77;;;20.30;94.60;;;;;;5121773;28;20024;-95
2022/09/12 09:34:23;;;;;;;15.30;12.52;;;20.40;94.60;;;;;;5091947;28;20044;-94
2022/09/12 09:37:15;;;;;;;15.18;11.90;;;20.50;94.60;;;;;;5106529;28;20031;-96
2022/09/12 09:40:06;;;;;;;16.67;11.73;;;20.50;94.60;;;;;;5105598;28;20023;-94
2022/09/12 09:43:08;;;;;;;;;;;20.60;94.50;;;;;;5112016;28;20023;-95
2022/09/12 09:50:18;;;;;;;13.45;11.45;;;20.80;94.50;;;;;;5042870;28;20067;-94
2022/09/12 09:52:44;;;;;;;13.23;10.40;;;20.80;94.40;;;;;;5033707;28;20105;-91
2022/09/12 09:55:31;;;;;;;13.60;10.07;;;20.90;94.40;;;;;;5104689;28;20020;-96
2022/09/12 09:58:10;;;;;;;;;;;;;;;;;;;;;
2022/09/12 10:00:41;;;;;;;12.10;9.18;;;21.00;94.40;;;;;;5113039;28;20066;-94
2022/09/12 10:03:19;;;;;;;11.27;8.32;;;21.00;94.30;;;;;;5072062;28;20055;-95
2022/09/12 10:05:48;;;;;;;9.07;7.20;;;21.10;94.30;;;;;;5087525;28;20058;-95
2022/09/12 10:08:29;;;;;;;8.60;6.85;;;21.10;94.10;;;;;;5102830;28;20107;-92
2022/09/12 10:11:14;;;;;;;6.75;6.10;;;21.20;93.80;;;;;;5084993;28;20024;-95
2022/09/12 10:13:51;;;;;;;8.32;6.43;;;21.20;93.70;;;;;;5085599;28;20020;-92
2022/09/12 10:16:29;;;;;;;8.65;6.30;;;21.30;93.50;;;;;;5101627;28;20020;-92
2022/09/12 10:18:58;;;;;;;7.55;6.15;;;21.40;93.50;;;;;;5083671;28;20492;-92
2022/09/12 10:21:38;;;;;;;5.97;5.32;;;21.40;93.40;;;;;;5084338;28;20043;-91
2022/09/12 10:24:25;;;;;;;8.77;6.65;;;21.50;93.40;;;;;;5067575;28;20028;-91
2022/09/12 10:26:57;;;;;;;7.32;6.32;;;21.50;93.10;;;;;;5094404;28;20024;-90
2022/09/12 10:29:35;;;;;;;8.02;6.55;;;21.60;93.10;;;;;;5113126;28;20016;-90
2022/09/12 10:32:08;;;;;;;6.68;6.03;;;21.60;93.00;;;;;;5093735;28;20035;-91
2022/09/12 10:34:39;;;;;;;8.90;8.00;;;21.70;92.90;;;;;;5093008;28;20067;-91
2022/09/12 10:37:09;;;;;;;9.32;8.20;;;21.70;92.90;;;;;;5072189;28;20086;-92
2022/09/12 10:39:55;;;;;;;9.38;7.80;;;21.80;92.80;;;;;;5102298;28;20024;-92
2022/09/12 10:42:45;;;;;;;7.70;6.15;;;21.80;92.80;;;;;;5068148;28;20032;-91
2022/09/12 10:45:25;;;;;;;6.28;5.30;;;21.90;92.70;;;;;;5102229;28;20032;-92
2022/09/12 10:47:57;;;;;;;6.38;5.47;;;21.90;92.50;;;;;;5083112;28;20035;-92
2022/09/12 10:50:26;;;;;;;5.82;5.32;;;21.90;92.50;;;;;;5084281;28;20020;-91
2022/09/12 10:52:53;;;;;;;5.53;5.03;;;22.00;92.50;;;;;;5122551;28;20418;-93
2022/09/12 10:55:28;;;;;;;5.20;4.70;;;22.00;92.20;;;;;;5122080;28;20024;-91
2022/09/12 10:58:12;;;;;;;5.60;4.97;;;22.10;92.10;;;;;;5121674;28;20024;-93
2022/09/12 11:00:45;;;;;;;5.70;5.10;;;22.20;92.00;;;;;;5121623;28;20023;-92
2022/09/12 11:03:38;;;;;;;5.80;5.13;;;22.20;92.00;;;;;;5103917;28;20062;-93
2022/09/12 11:06:06;;;;;;;8.93;5.10;;;22.20;91.90;;;;;;5104361;28;20079;-91
2022/09/12 11:08:59;;;;;;;6.68;5.35;;;22.30;91.90;;;;;;5104017;28;20034;-90
2022/09/12 11:11:39;;;;;;;6.90;4.97;;;22.40;91.80;;;;;;5122735;28;20030;-91
2022/09/12 11:14:24;;;;;;;;;;;22.40;91.70;;;;;;5141134;28;20083;-91
2022/09/12 11:17:04;;;;;;;6.60;5.00;;;22.40;91.70;;;;;;5105573;28;19982;-90
2022/09/12 11:19:31;;;;;;;6.38;5.22;;;22.40;91.50;;;;;;5139485;28;20091;-91
2022/09/12 11:22:13;;;;;;;7.13;4.93;;;22.50;91.40;;;;;;5131936;28;20031;-91
2022/09/12 11:25:14;;;;;;;5.13;4.55;;;22.50;91.20;;;;;;5122089;28;20028;-94
2022/09/12 11:28:00;;;;;;;4.68;4.20;;;22.60;91.10;;;;;;5104301;28;20093;-93
2022/09/12 11:30:37;;;;;;;5.80;4.55;;;22.60;91.00;;;;;;5103354;28;20051;-92
2022/09/12 11:33:09;;;;;;;5.05;4.60;;;22.70;90.80;;;;;;5103585;28;20043;-92
2022/09/12 11:35:46;;;;;;;6.10;4.18;;;22.70;90.70;;;;;;5102266;28;20062;-91
2022/09/12 11:38:37;;;;;;;4.13;3.13;;;22.80;90.80;;;;;;5102138;28;20122;-92
2022/09/12 11:41:16;;;;;;;3.88;3.22;;;22.90;90.80;;;;;;5103304;28;20064;-92
2022/09/12 11:43:57;;;;;;;6.22;3.70;;;22.90;90.80;;;;;;5103781;28;20037;-92
2022/09/12 11:46:37;;;;;;;7.03;3.60;;;23.00;90.80;;;;;;5111462;28;20115;-93
2022/09/12 11:49:03;;;;;;;;;;;23.00;90.40;;;;;;5107233;28;20024;-93
2022/09/12 11:51:42;;;;;;;5.22;4.72;;;23.10;90.50;;;;;;5105278;28;19916;-92
2022/09/12 11:54:25;;;;;;;3.80;3.50;;;23.10;90.10;;;;;;5103598;28;20023;-93
2022/09/12 11:57:19;;;;;;;3.75;3.10;;;23.20;90.10;;;;;;5100985;28;20031;-92
2022/09/12 12:00:07;;;;;;;3.45;3.15;;;23.20;90.10;;;;;;5102518;28;20061;-92
2022/09/12 12:03:05;;;;;;;3.22;2.92;;;23.20;90.10;;;;;;5119820;28;20020;-93
2022/09/12 12:06:01;;;;;;;3.80;3.15;;;23.30;90.00;;;;;;5077208;28;20028;-93
2022/09/12 12:08:29;;;;;;;3.90;2.80;;;23.40;89.90;;;;;;5102427;28;20535;-93
2022/09/12 12:11:01;;;;;;;4.28;3.15;;;23.40;89.60;;;;;;5102219;28;20024;-93
2022/09/12 12:13:38;;;;;;;3.60;3.22;;;23.50;89.30;;;;;;5102206;28;20476;-93
2022/09/12 12:16:25;;;;;;;3.53;3.05;;;23.50;88.90;;;;;;5101992;28;20051;-91
2022/09/12 12:19:22;;;;;;;3.85;3.13;;;23.50;88.80;;;;;;5119993;28;20116;-93
2022/09/12 12:21:49;;;;;;;2.97;2.60;;;23.50;88.40;;;;;;5101216;28;20389;-92
2022/09/12 12:24:59;;;;;;;2.85;2.50;;;23.60;88.40;;;;;;5102009;28;20039;-94
2022/09/12 12:27:46;;;;;;;3.60;3.30;;;23.70;88.20;;;;;;5075200;28;20040;-94
2022/09/12 12:30:33;;;;;;;3.03;2.70;;;23.70;87.60;;;;;;5101339;28;20115;-92
2022/09/12 12:33:25;;;;;;;3.40;3.10;;;23.70;87.00;;;;;;5120010;28;20020;-94
2022/09/12 12:36:32;;;;;;;3.65;2.33;;;23.70;86.50;;;;;;5057449;28;20116;-93
2022/09/12 12:38:58;;;;;;;3.13;2.60;;;23.70;86.50;;;;;;5101352;28;20035;-91
2022/09/12 12:41:24;;;;;;;3.40;3.10;;;23.80;86.40;;;;;;5119317;28;20380;-91
2022/09/12 12:43:55;;;;;;;3.17;2.63;;;23.80;86.30;;;;;;5120210;28;20032;-93
2022/09/12 12:46:26;;;;;;;3.13;2.40;;;23.90;86.00;;;;;;5101449;28;20106;-89
2022/09/12 12:49:04;;;;;;;4.35;2.95;;;23.90;85.80;;;;;;5119517;28;20106;-93
2022/09/12 12:52:16;;;;;;;3.08;2.60;;;23.90;85.60;;;;;;5118916;28;20097;-91
2022/09/12 12:54:42;;;;;;;3.40;2.58;;;23.90;85.50;;;;;;5087584;28;20032;-93
2022/09/12 12:57:15;;;;;;;4.05;3.30;;;23.90;85.50;;;;;;5118864;28;20035;-92
2022/09/12 12:59:59;;;;;;;3.45;3.10;;;24.00;85.30;;;;;;5119146;28;20020;-92
2022/09/12 13:02:51;;;;;;;4.03;3.42;;;24.10;85.50;;;;;;5120174;28;20028;-93
2022/09/12 13:05:26;;;;;;;4.28;3.47;;;24.10;85.40;;;;;;5120573;28;20035;-93
2022/09/12 13:08:27;;;;;;;3.13;2.78;;;24.10;86.20;;;;;;5103400;28;20028;-93
2022/09/12 13:11:09;;;;;;;3.13;2.88;;;24.10;85.10;;;;;;5103651;28;20044;-93
2022/09/12 13:13:42;;;;;;;2.97;2.40;;;24.10;84.80;;;;;;5105493;28;20055;-93
2022/09/12 13:16:09;;;;;;;3.50;2.90;;;24.10;84.90;;;;;;5121603;28;20086;-91
2022/09/12 13:18:50;;;;;;;3.00;2.70;;;24.10;84.70;;;;;;5120774;28;20052;-92
2022/09/12 13:21:20;;;;;;;2.78;2.58;;;24.20;84.50;;;;;;5134788;28;20024;-91
2022/09/12 13:24:01;;;;;;;2.72;2.50;;;24.20;84.40;;;;;;5133370;28;20015;-91